sensor_id;sensor_type;location;lat;lon;timestamp;temperature;humidity
10883;DHT22;5494;51.796;10.952;2022-08-03T00:02:17;20.70;99.90
10883;DHT22;5494;51.796;10.952;2022-08-03T00:04:48;20.80;99.90
10883;DHT22;5494;51.796;10.952;2022-08-03T00:07:17;20.80;99.90
10883;DHT22;5494;51.796;10.952;2022-08-03T00:09:45;20.80;99.90
10883;DHT22;5494;51.796;10.952;2022-08-03T00:12:14;20.80;99.90
10883;DHT22;5494;51.796;10.952;2022-08-03T00:14:42;20.80;99.90
10883;DHT22;5494;51.796;10.952;2022-08-03T00:17:11;20.80;99.90
10883;DHT22;5494;51.796;10.952;2022-08-03T00:19:39;20.70;99.90
10883;DHT22;5494;51.796;10.952;2022-08-03T00:22:09;20.70;99.90
10883;DHT22;5494;51.796;10.952;2022-08-03T00:24:37;20.80;99.90
10883;DHT22;5494;51.796;10.952;2022-08-03T00:27:11;20.70;99.90
10883;DHT22;5494;51.796;10.952;2022-08-03T00:29:42;20.70;99.90
10883;DHT22;5494;51.796;10.952;2022-08-03T00:32:26;20.70;99.90
10883;DHT22;5494;51.796;10.952;2022-08-03T00:34:55;20.70;99.90
10883;DHT22;5494;51.796;10.952;2022-08-03T00:37:26;20.80;99.90
10883;DHT22;5494;51.796;10.952;2022-08-03T00:40:10;20.70;99.90
10883;DHT22;5494;51.796;10.952;2022-08-03T00:42:47;20.80;99.90
10883;DHT22;5494;51.796;10.952;2022-08-03T00:45:18;20.80;99.90
10883;DHT22;5494;51.796;10.952;2022-08-03T00:47:49;20.80;99.90
10883;DHT22;5494;51.796;10.952;2022-08-03T00:50:18;20.90;99.90
10883;DHT22;5494;51.796;10.952;2022-08-03T00:52:51;20.90;99.90
10883;DHT22;5494;51.796;10.952;2022-08-03T00:55:21;20.90;99.90
10883;DHT22;5494;51.796;10.952;2022-08-03T00:57:50;21.00;99.90
10883;DHT22;5494;51.796;10.952;2022-08-03T01:00:21;21.10;99.90
10883;DHT22;5494;51.796;10.952;2022-08-03T01:02:52;21.20;99.90
10883;DHT22;5494;51.796;10.952;2022-08-03T01:05:21;21.20;99.90
10883;DHT22;5494;51.796;10.952;2022-08-03T01:07:59;21.20;99.90
10883;DHT22;5494;51.796;10.952;2022-08-03T01:10:38;21.30;99.90
10883;DHT22;5494;51.796;10.952;2022-08-03T01:13:20;21.20;99.90
10883;DHT22;5494;51.796;10.952;2022-08-03T01:16:18;21.10;99.90
10883;DHT22;5494;51.796;10.952;2022-08-03T01:19:17;21.20;99.90
10883;DHT22;5494;51.796;10.952;2022-08-03T01:22:09;21.20;99.90
10883;DHT22;5494;51.796;10.952;2022-08-03T01:24:56;21.10;99.90
10883;DHT22;5494;51.796;10.952;2022-08-03T01:27:43;21.20;99.90
10883;DHT22;5494;51.796;10.952;2022-08-03T01:30:23;21.20;99.90
10883;DHT22;5494;51.796;10.952;2022-08-03T01:32:59;21.20;99.90
10883;DHT22;5494;51.796;10.952;2022-08-03T01:35:34;21.20;99.90
10883;DHT22;5494;51.796;10.952;2022-08-03T01:38:10;21.20;99.90
10883;DHT22;5494;51.796;10.952;2022-08-03T01:40:41;21.30;99.90
10883;DHT22;5494;51.796;10.952;2022-08-03T01:43:15;21.20;99.90
10883;DHT22;5494;51.796;10.952;2022-08-03T01:46:09;21.20;99.90
10883;DHT22;5494;51.796;10.952;2022-08-03T01:48:41;21.20;99.90
10883;DHT22;5494;51.796;10.952;2022-08-03T01:51:12;21.20;99.90
10883;DHT22;5494;51.796;10.952;2022-08-03T01:53:43;21.20;99.90
10883;DHT22;5494;51.796;10.952;2022-08-03T01:56:15;21.20;99.90
10883;DHT22;5494;51.796;10.952;2022-08-03T01:58:45;21.30;99.90
10883;DHT22;5494;51.796;10.952;2022-08-03T02:01:20;21.30;99.90
10883;DHT22;5494;51.796;10.952;2022-08-03T02:03:50;21.20;99.90
10883;DHT22;5494;51.796;10.952;2022-08-03T02:06:29;21.30;99.90
10883;DHT22;5494;51.796;10.952;2022-08-03T02:09:22;21.40;99.90
10883;DHT22;5494;51.796;10.952;2022-08-03T02:11:52;21.40;99.90
10883;DHT22;5494;51.796;10.952;2022-08-03T02:14:23;21.40;99.90
10883;DHT22;5494;51.796;10.952;2022-08-03T02:16:56;21.40;99.90
10883;DHT22;5494;51.796;10.952;2022-08-03T02:19:26;21.40;99.90
10883;DHT22;5494;51.796;10.952;2022-08-03T02:22:02;21.40;99.90
10883;DHT22;5494;51.796;10.952;2022-08-03T02:24:33;21.40;99.90
10883;DHT22;5494;51.796;10.952;2022-08-03T02:27:02;21.50;99.90
10883;DHT22;5494;51.796;10.952;2022-08-03T02:29:37;21.50;99.90
10883;DHT22;5494;51.796;10.952;2022-08-03T02:32:13;21.60;99.90
10883;DHT22;5494;51.796;10.952;2022-08-03T02:34:50;21.60;99.90
10883;DHT22;5494;51.796;10.952;2022-08-03T02:37:24;21.60;99.90
10883;DHT22;5494;51.796;10.952;2022-08-03T02:39:58;21.60;99.90
10883;DHT22;5494;51.796;10.952;2022-08-03T02:42:29;21.60;99.90
10883;DHT22;5494;51.796;10.952;2022-08-03T02:45:03;21.60;99.90
10883;DHT22;5494;51.796;10.952;2022-08-03T02:47:39;21.70;99.90
10883;DHT22;5494;51.796;10.952;2022-08-03T02:50:22;21.70;99.90
10883;DHT22;5494;51.796;10.952;2022-08-03T02:52:54;21.60;99.90
10883;DHT22;5494;51.796;10.952;2022-08-03T02:55:25;21.70;99.90
10883;DHT22;5494;51.796;10.952;2022-08-03T02:57:55;21.70;99.90
10883;DHT22;5494;51.796;10.952;2022-08-03T03:00:28;21.70;99.90
10883;DHT22;5494;51.796;10.952;2022-08-03T03:03:01;21.70;99.90
10883;DHT22;5494;51.796;10.952;2022-08-03T03:05:33;21.70;99.90
10883;DHT22;5494;51.796;10.952;2022-08-03T03:08:22;21.70;99.90
10883;DHT22;5494;51.796;10.952;2022-08-03T03:10:56;21.70;99.90
10883;DHT22;5494;51.796;10.952;2022-08-03T03:13:28;21.70;99.90
10883;DHT22;5494;51.796;10.952;2022-08-03T03:15:59;21.70;99.90
10883;DHT22;5494;51.796;10.952;2022-08-03T03:18:32;21.70;99.90
10883;DHT22;5494;51.796;10.952;2022-08-03T03:21:02;21.60;99.90
10883;DHT22;5494;51.796;10.952;2022-08-03T03:23:33;21.70;99.90
10883;DHT22;5494;51.796;10.952;2022-08-03T03:26:04;21.70;99.90
10883;DHT22;5494;51.796;10.952;2022-08-03T03:28:34;21.70;99.90
10883;DHT22;5494;51.796;10.952;2022-08-03T03:31:04;21.70;99.90
10883;DHT22;5494;51.796;10.952;2022-08-03T03:33:35;21.70;99.90
10883;DHT22;5494;51.796;10.952;2022-08-03T03:36:06;21.70;99.90
10883;DHT22;5494;51.796;10.952;2022-08-03T03:38:35;21.80;99.90
10883;DHT22;5494;51.796;10.952;2022-08-03T03:41:04;21.70;99.90
10883;DHT22;5494;51.796;10.952;2022-08-03T03:43:32;21.70;99.90
10883;DHT22;5494;51.796;10.952;2022-08-03T03:46:01;21.80;99.90
10883;DHT22;5494;51.796;10.952;2022-08-03T03:48:30;21.70;99.90
10883;DHT22;5494;51.796;10.952;2022-08-03T03:51:00;21.70;99.90
10883;DHT22;5494;51.796;10.952;2022-08-03T03:53:29;21.80;99.90
10883;DHT22;5494;51.796;10.952;2022-08-03T03:55:57;21.80;99.90
10883;DHT22;5494;51.796;10.952;2022-08-03T03:58:29;21.80;99.90
10883;DHT22;5494;51.796;10.952;2022-08-03T04:00:59;21.80;99.90
10883;DHT22;5494;51.796;10.952;2022-08-03T04:03:27;21.90;99.90
10883;DHT22;5494;51.796;10.952;2022-08-03T04:05:57;21.90;99.90
10883;DHT22;5494;51.796;10.952;2022-08-03T04:08:44;22.00;99.90
10883;DHT22;5494;51.796;10.952;2022-08-03T04:11:46;22.00;99.90
10883;DHT22;5494;51.796;10.952;2022-08-03T04:14:22;22.10;99.90
10883;DHT22;5494;51.796;10.952;2022-08-03T04:16:58;22.20;99.90
10883;DHT22;5494;51.796;10.952;2022-08-03T04:19:34;22.30;99.90
10883;DHT22;5494;51.796;10.952;2022-08-03T04:22:09;22.40;99.90
10883;DHT22;5494;51.796;10.952;2022-08-03T04:24:45;22.50;99.90
10883;DHT22;5494;51.796;10.952;2022-08-03T04:27:19;22.60;99.90
10883;DHT22;5494;51.796;10.952;2022-08-03T04:29:52;22.70;99.90
10883;DHT22;5494;51.796;10.952;2022-08-03T04:32:24;22.80;99.90
10883;DHT22;5494;51.796;10.952;2022-08-03T04:34:55;22.90;99.90
10883;DHT22;5494;51.796;10.952;2022-08-03T04:37:29;23.00;99.90
10883;DHT22;5494;51.796;10.952;2022-08-03T04:40:06;23.20;99.90
10883;DHT22;5494;51.796;10.952;2022-08-03T04:42:37;23.40;99.90
10883;DHT22;5494;51.796;10.952;2022-08-03T04:45:11;23.70;99.90
10883;DHT22;5494;51.796;10.952;2022-08-03T04:47:41;23.80;99.90
10883;DHT22;5494;51.796;10.952;2022-08-03T04:50:10;24.00;99.90
10883;DHT22;5494;51.796;10.952;2022-08-03T04:53:04;24.20;99.90
10883;DHT22;5494;51.796;10.952;2022-08-03T04:55:34;24.50;99.90
10883;DHT22;5494;51.796;10.952;2022-08-03T04:58:04;24.70;99.60
10883;DHT22;5494;51.796;10.952;2022-08-03T05:00:33;24.90;99.10
10883;DHT22;5494;51.796;10.952;2022-08-03T05:03:01;25.10;98.60
10883;DHT22;5494;51.796;10.952;2022-08-03T05:05:47;25.50;97.70
10883;DHT22;5494;51.796;10.952;2022-08-03T05:08:17;25.70;97.00
10883;DHT22;5494;51.796;10.952;2022-08-03T05:10:55;26.00;96.30
10883;DHT22;5494;51.796;10.952;2022-08-03T05:13:25;26.20;95.90
10883;DHT22;5494;51.796;10.952;2022-08-03T05:15:53;26.60;95.10
10883;DHT22;5494;51.796;10.952;2022-08-03T05:18:22;26.90;94.40
10883;DHT22;5494;51.796;10.952;2022-08-03T05:20:50;27.10;93.80
10883;DHT22;5494;51.796;10.952;2022-08-03T05:23:19;27.40;93.30
10883;DHT22;5494;51.796;10.952;2022-08-03T05:25:47;27.50;92.80
10883;DHT22;5494;51.796;10.952;2022-08-03T05:28:18;27.70;92.30
10883;DHT22;5494;51.796;10.952;2022-08-03T05:30:47;28.00;91.70
10883;DHT22;5494;51.796;10.952;2022-08-03T05:33:16;28.10;91.30
10883;DHT22;5494;51.796;10.952;2022-08-03T05:35:44;28.30;90.70
10883;DHT22;5494;51.796;10.952;2022-08-03T05:38:29;28.60;90.30
10883;DHT22;5494;51.796;10.952;2022-08-03T05:41:02;28.60;89.60
10883;DHT22;5494;51.796;10.952;2022-08-03T05:43:52;28.60;89.80
10883;DHT22;5494;51.796;10.952;2022-08-03T05:46:22;28.90;88.60
10883;DHT22;5494;51.796;10.952;2022-08-03T05:48:50;29.60;86.10
10883;DHT22;5494;51.796;10.952;2022-08-03T05:51:19;30.20;83.40
10883;DHT22;5494;51.796;10.952;2022-08-03T05:53:47;30.90;81.00
10883;DHT22;5494;51.796;10.952;2022-08-03T05:56:20;31.50;78.20
10883;DHT22;5494;51.796;10.952;2022-08-03T05:58:51;32.00;76.00
10883;DHT22;5494;51.796;10.952;2022-08-03T06:01:20;32.70;72.10
10883;DHT22;5494;51.796;10.952;2022-08-03T06:03:49;32.80;70.50
10883;DHT22;5494;51.796;10.952;2022-08-03T06:06:19;32.80;69.50
10883;DHT22;5494;51.796;10.952;2022-08-03T06:08:47;33.00;68.00
10883;DHT22;5494;51.796;10.952;2022-08-03T06:11:16;33.40;66.50
10883;DHT22;5494;51.796;10.952;2022-08-03T06:13:45;33.80;64.60
10883;DHT22;5494;51.796;10.952;2022-08-03T06:16:14;34.40;63.10
10883;DHT22;5494;51.796;10.952;2022-08-03T06:18:43;34.90;61.50
10883;DHT22;5494;51.796;10.952;2022-08-03T06:21:12;35.20;60.60
10883;DHT22;5494;51.796;10.952;2022-08-03T06:23:43;35.70;58.70
10883;DHT22;5494;51.796;10.952;2022-08-03T06:26:23;36.10;57.80
10883;DHT22;5494;51.796;10.952;2022-08-03T06:28:52;35.90;56.60
10883;DHT22;5494;51.796;10.952;2022-08-03T06:31:25;35.40;57.10
10883;DHT22;5494;51.796;10.952;2022-08-03T06:34:01;34.80;57.60
10883;DHT22;5494;51.796;10.952;2022-08-03T06:36:51;34.50;58.70
10883;DHT22;5494;51.796;10.952;2022-08-03T06:39:27;35.20;58.00
10883;DHT22;5494;51.796;10.952;2022-08-03T06:41:57;35.80;57.30
10883;DHT22;5494;51.796;10.952;2022-08-03T06:44:26;36.20;56.50
10883;DHT22;5494;51.796;10.952;2022-08-03T06:46:55;36.20;56.20
10883;DHT22;5494;51.796;10.952;2022-08-03T06:49:24;36.00;55.90
10883;DHT22;5494;51.796;10.952;2022-08-03T06:51:53;35.60;56.60
10883;DHT22;5494;51.796;10.952;2022-08-03T06:54:42;35.00;56.80
10883;DHT22;5494;51.796;10.952;2022-08-03T06:57:11;34.70;57.20
10883;DHT22;5494;51.796;10.952;2022-08-03T06:59:39;34.60;57.40
10883;DHT22;5494;51.796;10.952;2022-08-03T07:02:29;34.40;58.50
10883;DHT22;5494;51.796;10.952;2022-08-03T07:04:57;34.30;57.50
10883;DHT22;5494;51.796;10.952;2022-08-03T07:07:26;34.20;58.20
10883;DHT22;5494;51.796;10.952;2022-08-03T07:09:55;34.20;57.70
10883;DHT22;5494;51.796;10.952;2022-08-03T07:12:25;33.90;58.60
10883;DHT22;5494;51.796;10.952;2022-08-03T07:14:55;33.90;58.50
10883;DHT22;5494;51.796;10.952;2022-08-03T07:17:32;34.10;58.10
10883;DHT22;5494;51.796;10.952;2022-08-03T07:20:04;34.10;58.30
10883;DHT22;5494;51.796;10.952;2022-08-03T07:22:34;34.50;58.10
10883;DHT22;5494;51.796;10.952;2022-08-03T07:25:03;34.60;57.50
10883;DHT22;5494;51.796;10.952;2022-08-03T07:27:32;34.70;57.10
10883;DHT22;5494;51.796;10.952;2022-08-03T07:30:01;34.60;57.20
10883;DHT22;5494;51.796;10.952;2022-08-03T07:32:35;34.50;57.50
10883;DHT22;5494;51.796;10.952;2022-08-03T07:35:17;34.60;58.00
10883;DHT22;5494;51.796;10.952;2022-08-03T07:37:51;34.60;57.60
10883;DHT22;5494;51.796;10.952;2022-08-03T07:40:21;34.40;57.90
10883;DHT22;5494;51.796;10.952;2022-08-03T07:42:58;34.30;58.30
10883;DHT22;5494;51.796;10.952;2022-08-03T07:45:28;34.50;58.10
10883;DHT22;5494;51.796;10.952;2022-08-03T07:47:58;34.40;58.10
10883;DHT22;5494;51.796;10.952;2022-08-03T07:50:27;34.30;57.90
10883;DHT22;5494;51.796;10.952;2022-08-03T07:52:56;34.50;57.90
10883;DHT22;5494;51.796;10.952;2022-08-03T07:55:26;34.60;57.60
10883;DHT22;5494;51.796;10.952;2022-08-03T07:58:05;34.60;58.00
10883;DHT22;5494;51.796;10.952;2022-08-03T08:00:36;34.80;57.40
10883;DHT22;5494;51.796;10.952;2022-08-03T08:03:06;35.00;57.50
10883;DHT22;5494;51.796;10.952;2022-08-03T08:05:36;35.20;57.50
10883;DHT22;5494;51.796;10.952;2022-08-03T08:08:05;35.10;56.80
10883;DHT22;5494;51.796;10.952;2022-08-03T08:10:34;35.20;57.40
10883;DHT22;5494;51.796;10.952;2022-08-03T08:13:03;35.50;56.90
10883;DHT22;5494;51.796;10.952;2022-08-03T08:15:32;35.60;55.80
10883;DHT22;5494;51.796;10.952;2022-08-03T08:18:00;35.60;55.20
10883;DHT22;5494;51.796;10.952;2022-08-03T08:20:32;36.00;55.50
10883;DHT22;5494;51.796;10.952;2022-08-03T08:23:05;36.40;54.00
10883;DHT22;5494;51.796;10.952;2022-08-03T08:25:55;36.60;53.40
10883;DHT22;5494;51.796;10.952;2022-08-03T08:28:24;36.30;53.30
10883;DHT22;5494;51.796;10.952;2022-08-03T08:31:00;35.80;53.60
10883;DHT22;5494;51.796;10.952;2022-08-03T08:33:29;35.60;53.20
10883;DHT22;5494;51.796;10.952;2022-08-03T08:36:19;35.60;53.30
10883;DHT22;5494;51.796;10.952;2022-08-03T08:38:48;35.90;53.00
10883;DHT22;5494;51.796;10.952;2022-08-03T08:41:16;35.90;53.40
10883;DHT22;5494;51.796;10.952;2022-08-03T08:43:45;35.90;53.00
10883;DHT22;5494;51.796;10.952;2022-08-03T08:46:15;35.90;52.70
10883;DHT22;5494;51.796;10.952;2022-08-03T08:48:51;36.10;52.40
10883;DHT22;5494;51.796;10.952;2022-08-03T08:51:26;36.60;51.60
10883;DHT22;5494;51.796;10.952;2022-08-03T08:54:20;37.20;50.60
10883;DHT22;5494;51.796;10.952;2022-08-03T08:56:49;37.10;50.10
10883;DHT22;5494;51.796;10.952;2022-08-03T08:59:19;37.00;50.10
10883;DHT22;5494;51.796;10.952;2022-08-03T09:01:48;36.90;49.60
10883;DHT22;5494;51.796;10.952;2022-08-03T09:04:17;36.90;49.90
10883;DHT22;5494;51.796;10.952;2022-08-03T09:06:48;37.00;49.90
10883;DHT22;5494;51.796;10.952;2022-08-03T09:09:37;37.40;49.60
10883;DHT22;5494;51.796;10.952;2022-08-03T09:12:25;37.50;49.70
10883;DHT22;5494;51.796;10.952;2022-08-03T09:15:16;37.60;49.00
10883;DHT22;5494;51.796;10.952;2022-08-03T09:17:47;37.80;48.40
10883;DHT22;5494;51.796;10.952;2022-08-03T09:20:18;37.90;48.20
10883;DHT22;5494;51.796;10.952;2022-08-03T09:22:58;37.80;48.10
10883;DHT22;5494;51.796;10.952;2022-08-03T09:25:57;37.70;48.80
10883;DHT22;5494;51.796;10.952;2022-08-03T09:28:34;38.00;47.50
10883;DHT22;5494;51.796;10.952;2022-08-03T09:31:32;38.20;46.90
10883;DHT22;5494;51.796;10.952;2022-08-03T09:34:03;38.40;46.90
10883;DHT22;5494;51.796;10.952;2022-08-03T09:36:33;38.20;46.40
10883;DHT22;5494;51.796;10.952;2022-08-03T09:39:06;37.60;47.90
10883;DHT22;5494;51.796;10.952;2022-08-03T09:41:38;37.50;48.10
10883;DHT22;5494;51.796;10.952;2022-08-03T09:44:07;37.40;47.80
10883;DHT22;5494;51.796;10.952;2022-08-03T09:46:53;37.50;47.90
10883;DHT22;5494;51.796;10.952;2022-08-03T09:49:23;37.90;48.10
10883;DHT22;5494;51.796;10.952;2022-08-03T09:51:52;38.10;46.60
10883;DHT22;5494;51.796;10.952;2022-08-03T09:54:42;38.40;46.30
10883;DHT22;5494;51.796;10.952;2022-08-03T09:57:21;38.50;46.10
10883;DHT22;5494;51.796;10.952;2022-08-03T09:59:52;38.40;47.00
10883;DHT22;5494;51.796;10.952;2022-08-03T10:02:39;38.70;45.90
10883;DHT22;5494;51.796;10.952;2022-08-03T10:05:09;38.60;46.20
10883;DHT22;5494;51.796;10.952;2022-08-03T10:07:48;38.90;45.90
10883;DHT22;5494;51.796;10.952;2022-08-03T10:10:18;39.00;45.90
10883;DHT22;5494;51.796;10.952;2022-08-03T10:12:59;39.00;45.20
10883;DHT22;5494;51.796;10.952;2022-08-03T10:15:28;39.00;45.50
10883;DHT22;5494;51.796;10.952;2022-08-03T10:18:17;38.70;45.70
10883;DHT22;5494;51.796;10.952;2022-08-03T10:20:50;38.30;45.90
10883;DHT22;5494;51.796;10.952;2022-08-03T10:23:20;37.90;46.30
10883;DHT22;5494;51.796;10.952;2022-08-03T10:25:57;37.90;46.30
10883;DHT22;5494;51.796;10.952;2022-08-03T10:28:34;38.00;46.00
10883;DHT22;5494;51.796;10.952;2022-08-03T10:31:12;38.00;46.10
10883;DHT22;5494;51.796;10.952;2022-08-03T10:33:43;37.60;47.30
10883;DHT22;5494;51.796;10.952;2022-08-03T10:36:20;36.60;47.40
10883;DHT22;5494;51.796;10.952;2022-08-03T10:38:51;35.70;48.90
10883;DHT22;5494;51.796;10.952;2022-08-03T10:41:25;35.40;49.70
10883;DHT22;5494;51.796;10.952;2022-08-03T10:44:03;35.40;49.80
10883;DHT22;5494;51.796;10.952;2022-08-03T10:46:35;35.60;49.60
10883;DHT22;5494;51.796;10.952;2022-08-03T10:49:12;35.60;49.50
10883;DHT22;5494;51.796;10.952;2022-08-03T10:51:42;35.10;50.50
10883;DHT22;5494;51.796;10.952;2022-08-03T10:54:37;34.80;50.40
10883;DHT22;5494;51.796;10.952;2022-08-03T10:57:45;34.40;51.10
10883;DHT22;5494;51.796;10.952;2022-08-03T11:00:26;34.20;52.60
10883;DHT22;5494;51.796;10.952;2022-08-03T11:03:05;34.00;52.20
10883;DHT22;5494;51.796;10.952;2022-08-03T11:05:40;33.50;52.70
10883;DHT22;5494;51.796;10.952;2022-08-03T11:08:21;33.20;53.50
10883;DHT22;5494;51.796;10.952;2022-08-03T11:10:53;32.80;54.50
10883;DHT22;5494;51.796;10.952;2022-08-03T11:13:25;32.70;54.70
10883;DHT22;5494;51.796;10.952;2022-08-03T11:16:00;32.60;54.70
10883;DHT22;5494;51.796;10.952;2022-08-03T11:18:34;32.60;54.60
10883;DHT22;5494;51.796;10.952;2022-08-03T11:21:03;32.40;55.20
10883;DHT22;5494;51.796;10.952;2022-08-03T11:23:42;32.30;55.40
10883;DHT22;5494;51.796;10.952;2022-08-03T11:26:32;32.40;55.60
10883;DHT22;5494;51.796;10.952;2022-08-03T11:29:27;32.30;56.10
10883;DHT22;5494;51.796;10.952;2022-08-03T11:31:57;32.30;56.20
10883;DHT22;5494;51.796;10.952;2022-08-03T11:34:25;32.40;56.50
10883;DHT22;5494;51.796;10.952;2022-08-03T11:37:19;32.50;56.10
10883;DHT22;5494;51.796;10.952;2022-08-03T11:39:53;32.30;56.50
10883;DHT22;5494;51.796;10.952;2022-08-03T11:42:42;32.10;56.90
10883;DHT22;5494;51.796;10.952;2022-08-03T11:45:14;32.10;56.60
10883;DHT22;5494;51.796;10.952;2022-08-03T11:47:42;32.00;57.00
10883;DHT22;5494;51.796;10.952;2022-08-03T11:50:18;32.00;57.00
10883;DHT22;5494;51.796;10.952;2022-08-03T11:52:48;32.20;56.60
10883;DHT22;5494;51.796;10.952;2022-08-03T11:55:18;32.50;56.70
10883;DHT22;5494;51.796;10.952;2022-08-03T11:57:48;32.50;56.50
10883;DHT22;5494;51.796;10.952;2022-08-03T12:00:38;32.50;56.40
10883;DHT22;5494;51.796;10.952;2022-08-03T12:03:09;32.40;57.20
10883;DHT22;5494;51.796;10.952;2022-08-03T12:05:45;32.40;56.90
10883;DHT22;5494;51.796;10.952;2022-08-03T12:08:28;32.20;57.00
10883;DHT22;5494;51.796;10.952;2022-08-03T12:11:00;32.00;57.30
10883;DHT22;5494;51.796;10.952;2022-08-03T12:13:39;31.80;57.70
10883;DHT22;5494;51.796;10.952;2022-08-03T12:16:30;31.80;57.50
10883;DHT22;5494;51.796;10.952;2022-08-03T12:19:00;31.70;57.90
10883;DHT22;5494;51.796;10.952;2022-08-03T12:21:31;31.70;58.20
10883;DHT22;5494;51.796;10.952;2022-08-03T12:24:01;31.90;58.20
10883;DHT22;5494;51.796;10.952;2022-08-03T12:26:43;32.10;58.00
10883;DHT22;5494;51.796;10.952;2022-08-03T12:29:26;32.20;57.40
10883;DHT22;5494;51.796;10.952;2022-08-03T12:31:56;32.40;57.40
10883;DHT22;5494;51.796;10.952;2022-08-03T12:34:46;32.40;56.90
10883;DHT22;5494;51.796;10.952;2022-08-03T12:37:18;32.40;57.30
10883;DHT22;5494;51.796;10.952;2022-08-03T12:39:56;32.20;57.00
10883;DHT22;5494;51.796;10.952;2022-08-03T12:42:36;32.00;57.20
10883;DHT22;5494;51.796;10.952;2022-08-03T12:45:19;31.80;58.00
10883;DHT22;5494;51.796;10.952;2022-08-03T12:47:52;31.60;58.10
10883;DHT22;5494;51.796;10.952;2022-08-03T12:50:23;31.50;58.60
10883;DHT22;5494;51.796;10.952;2022-08-03T12:52:54;31.60;58.90
10883;DHT22;5494;51.796;10.952;2022-08-03T12:55:24;31.80;58.80
10883;DHT22;5494;51.796;10.952;2022-08-03T12:58:28;32.00;58.00
10883;DHT22;5494;51.796;10.952;2022-08-03T13:01:01;32.10;57.60
10883;DHT22;5494;51.796;10.952;2022-08-03T13:03:41;32.10;57.80
10883;DHT22;5494;51.796;10.952;2022-08-03T13:06:18;32.10;57.70
10883;DHT22;5494;51.796;10.952;2022-08-03T13:08:48;32.30;57.40
10883;DHT22;5494;51.796;10.952;2022-08-03T13:11:22;32.40;56.70
10883;DHT22;5494;51.796;10.952;2022-08-03T13:14:12;32.30;56.60
10883;DHT22;5494;51.796;10.952;2022-08-03T13:16:47;32.30;56.70
10883;DHT22;5494;51.796;10.952;2022-08-03T13:19:17;32.30;57.10
10883;DHT22;5494;51.796;10.952;2022-08-03T13:21:46;32.20;57.50
10883;DHT22;5494;51.796;10.952;2022-08-03T13:24:30;32.30;56.70
10883;DHT22;5494;51.796;10.952;2022-08-03T13:27:00;32.20;57.30
10883;DHT22;5494;51.796;10.952;2022-08-03T13:29:51;32.10;57.80
10883;DHT22;5494;51.796;10.952;2022-08-03T13:32:20;32.20;57.60
10883;DHT22;5494;51.796;10.952;2022-08-03T13:34:50;32.40;57.00
10883;DHT22;5494;51.796;10.952;2022-08-03T13:37:19;32.50;57.00
10883;DHT22;5494;51.796;10.952;2022-08-03T13:39:48;32.50;57.10
10883;DHT22;5494;51.796;10.952;2022-08-03T13:42:27;32.50;56.70
10883;DHT22;5494;51.796;10.952;2022-08-03T13:44:57;32.50;56.60
10883;DHT22;5494;51.796;10.952;2022-08-03T13:47:27;32.60;56.60
10883;DHT22;5494;51.796;10.952;2022-08-03T13:49:57;32.50;56.30
10883;DHT22;5494;51.796;10.952;2022-08-03T13:52:30;32.50;56.50
10883;DHT22;5494;51.796;10.952;2022-08-03T13:55:00;32.40;56.60
10883;DHT22;5494;51.796;10.952;2022-08-03T13:57:29;32.40;56.40
10883;DHT22;5494;51.796;10.952;2022-08-03T14:00:18;32.50;56.70
10883;DHT22;5494;51.796;10.952;2022-08-03T14:02:56;32.40;56.60
10883;DHT22;5494;51.796;10.952;2022-08-03T14:05:42;32.40;56.60
10883;DHT22;5494;51.796;10.952;2022-08-03T14:08:11;32.50;56.90
10883;DHT22;5494;51.796;10.952;2022-08-03T14:10:42;32.50;56.60
10883;DHT22;5494;51.796;10.952;2022-08-03T14:13:12;32.60;56.40
10883;DHT22;5494;51.796;10.952;2022-08-03T14:15:44;32.60;56.70
10883;DHT22;5494;51.796;10.952;2022-08-03T14:18:18;32.60;56.50
10883;DHT22;5494;51.796;10.952;2022-08-03T14:21:02;32.70;56.60
10883;DHT22;5494;51.796;10.952;2022-08-03T14:23:34;32.80;56.40
10883;DHT22;5494;51.796;10.952;2022-08-03T14:26:05;32.80;56.60
10883;DHT22;5494;51.796;10.952;2022-08-03T14:28:34;32.80;56.50
10883;DHT22;5494;51.796;10.952;2022-08-03T14:31:03;32.90;56.50
10883;DHT22;5494;51.796;10.952;2022-08-03T14:33:52;32.80;56.30
10883;DHT22;5494;51.796;10.952;2022-08-03T14:36:21;32.80;56.10
10883;DHT22;5494;51.796;10.952;2022-08-03T14:38:50;32.70;56.40
10883;DHT22;5494;51.796;10.952;2022-08-03T14:41:18;32.70;56.30
10883;DHT22;5494;51.796;10.952;2022-08-03T14:43:47;32.70;56.10
10883;DHT22;5494;51.796;10.952;2022-08-03T14:46:29;32.60;55.80
10883;DHT22;5494;51.796;10.952;2022-08-03T14:48:58;32.60;55.90
10883;DHT22;5494;51.796;10.952;2022-08-03T14:51:48;32.50;56.20
10883;DHT22;5494;51.796;10.952;2022-08-03T14:54:20;32.40;56.30
10883;DHT22;5494;51.796;10.952;2022-08-03T14:56:49;32.40;56.10
10883;DHT22;5494;51.796;10.952;2022-08-03T14:59:18;32.40;55.90
10883;DHT22;5494;51.796;10.952;2022-08-03T15:01:47;32.40;56.50
10883;DHT22;5494;51.796;10.952;2022-08-03T15:04:35;32.50;56.00
10883;DHT22;5494;51.796;10.952;2022-08-03T15:07:04;32.40;56.30
10883;DHT22;5494;51.796;10.952;2022-08-03T15:09:33;32.40;55.80
10883;DHT22;5494;51.796;10.952;2022-08-03T15:12:03;32.50;55.70
10883;DHT22;5494;51.796;10.952;2022-08-03T15:14:32;32.50;56.10
10883;DHT22;5494;51.796;10.952;2022-08-03T15:17:04;32.40;56.60
10883;DHT22;5494;51.796;10.952;2022-08-03T15:19:33;32.40;56.20
10883;DHT22;5494;51.796;10.952;2022-08-03T15:22:23;32.40;55.80
10883;DHT22;5494;51.796;10.952;2022-08-03T15:25:01;32.30;56.40
10883;DHT22;5494;51.796;10.952;2022-08-03T15:27:50;32.20;56.40
10883;DHT22;5494;51.796;10.952;2022-08-03T15:30:31;32.20;56.60
10883;DHT22;5494;51.796;10.952;2022-08-03T15:33:04;32.20;56.10
10883;DHT22;5494;51.796;10.952;2022-08-03T15:35:33;32.10;56.50
10883;DHT22;5494;51.796;10.952;2022-08-03T15:38:03;32.10;56.50
10883;DHT22;5494;51.796;10.952;2022-08-03T15:40:36;32.20;56.20
10883;DHT22;5494;51.796;10.952;2022-08-03T15:43:04;32.10;56.20
10883;DHT22;5494;51.796;10.952;2022-08-03T15:45:33;32.00;56.60
10883;DHT22;5494;51.796;10.952;2022-08-03T15:48:04;31.90;57.00
10883;DHT22;5494;51.796;10.952;2022-08-03T15:50:33;31.90;56.60
10883;DHT22;5494;51.796;10.952;2022-08-03T15:53:03;32.10;55.90
10883;DHT22;5494;51.796;10.952;2022-08-03T15:55:31;32.00;56.50
10883;DHT22;5494;51.796;10.952;2022-08-03T15:58:00;31.90;56.90
10883;DHT22;5494;51.796;10.952;2022-08-03T16:00:48;32.00;57.10
10883;DHT22;5494;51.796;10.952;2022-08-03T16:03:17;31.90;57.20
10883;DHT22;5494;51.796;10.952;2022-08-03T16:05:46;31.90;57.20
10883;DHT22;5494;51.796;10.952;2022-08-03T16:08:16;31.90;56.90
10883;DHT22;5494;51.796;10.952;2022-08-03T16:10:45;31.90;57.30
10883;DHT22;5494;51.796;10.952;2022-08-03T16:13:16;31.90;56.80
10883;DHT22;5494;51.796;10.952;2022-08-03T16:15:44;31.90;56.50